Calabogie, Canada
Current Conditions -  °F | °C
As of 2:00 AM on Saturday 29 Nov 2014 (Local Time) from CYOW Reporting Station
Few Clouds Few Clouds  
Wind Chill:   Ceiling: Unl
Heat Index: 14°   Visibility: 15mi
Dew Point:   Wind: 6mph
Humidity: 79%   Direction: 270°W
Pressure: 30.2"   Gusts: NA
Location:  45.31°N, 76.72°W
Report Text: CYOW 290700Z 27005KT 15SM FEW100 M10/M13 A3020 RMK AC1 AC TR FROIN SLP235
Loading
Personal Weather Stations






























Interactive Weather Map New forecast layout! Learn more

10-Day Weather Forecast

Advertisements
Track Severe Weather on mobile